sensor_id;sensor_type;location;lat;lon;timestamp;temperature;humidity
36442;DHT22;64346;50.820;16.274;2023-09-19T00:00:28;20.10;99.90
36442;DHT22;64346;50.820;16.274;2023-09-19T00:03:16;20.20;99.90
36442;DHT22;64346;50.820;16.274;2023-09-19T00:05:44;20.20;99.90
36442;DHT22;64346;50.820;16.274;2023-09-19T00:08:12;20.20;99.90
36442;DHT22;64346;50.820;16.274;2023-09-19T00:10:39;20.20;99.90
36442;DHT22;64346;50.820;16.274;2023-09-19T00:13:06;20.20;99.90
36442;DHT22;64346;50.820;16.274;2023-09-19T00:15:42;20.20;99.90
36442;DHT22;64346;50.820;16.274;2023-09-19T00:18:14;20.10;99.90
36442;DHT22;64346;50.820;16.274;2023-09-19T00:20:46;20.10;99.90
36442;DHT22;64346;50.820;16.274;2023-09-19T00:23:13;20.10;99.90
36442;DHT22;64346;50.820;16.274;2023-09-19T00:25:41;20.10;99.90
36442;DHT22;64346;50.820;16.274;2023-09-19T00:28:08;20.20;99.90
36442;DHT22;64346;50.820;16.274;2023-09-19T00:30:38;20.10;99.90
36442;DHT22;64346;50.820;16.274;2023-09-19T00:33:05;20.00;99.90
36442;DHT22;64346;50.820;16.274;2023-09-19T00:35:33;20.00;99.90
36442;DHT22;64346;50.820;16.274;2023-09-19T00:38:03;20.00;99.90
36442;DHT22;64346;50.820;16.274;2023-09-19T00:40:30;19.90;99.90
36442;DHT22;64346;50.820;16.274;2023-09-19T00:42:58;19.90;99.90
36442;DHT22;64346;50.820;16.274;2023-09-19T00:45:28;19.90;99.90
36442;DHT22;64346;50.820;16.274;2023-09-19T00:47:56;19.90;99.90
36442;DHT22;64346;50.820;16.274;2023-09-19T00:50:25;19.90;99.90
36442;DHT22;64346;50.820;16.274;2023-09-19T00:52:56;19.80;99.90
36442;DHT22;64346;50.820;16.274;2023-09-19T00:55:24;19.80;99.90
36442;DHT22;64346;50.820;16.274;2023-09-19T00:57:52;19.80;99.90
36442;DHT22;64346;50.820;16.274;2023-09-19T01:00:22;19.70;99.90
36442;DHT22;64346;50.820;16.274;2023-09-19T01:02:49;19.70;99.90
36442;DHT22;64346;50.820;16.274;2023-09-19T01:05:17;19.70;99.90
36442;DHT22;64346;50.820;16.274;2023-09-19T01:07:47;19.60;99.90
36442;DHT22;64346;50.820;16.274;2023-09-19T01:10:17;19.60;99.90
36442;DHT22;64346;50.820;16.274;2023-09-19T01:13:10;19.60;99.90
36442;DHT22;64346;50.820;16.274;2023-09-19T01:29:52;19.20;99.90
36442;DHT22;64346;50.820;16.274;2023-09-19T01:32:21;19.20;99.90
36442;DHT22;64346;50.820;16.274;2023-09-19T01:34:51;19.10;99.90
36442;DHT22;64346;50.820;16.274;2023-09-19T01:37:21;19.10;99.90
36442;DHT22;64346;50.820;16.274;2023-09-19T01:39:53;19.10;99.90
36442;DHT22;64346;50.820;16.274;2023-09-19T01:42:35;19.00;99.90
36442;DHT22;64346;50.820;16.274;2023-09-19T01:45:16;19.00;99.90
36442;DHT22;64346;50.820;16.274;2023-09-19T01:47:50;18.90;99.90
36442;DHT22;64346;50.820;16.274;2023-09-19T01:50:32;18.90;99.90
36442;DHT22;64346;50.820;16.274;2023-09-19T01:53:27;18.80;99.90
36442;DHT22;64346;50.820;16.274;2023-09-19T01:55:55;18.80;99.90
36442;DHT22;64346;50.820;16.274;2023-09-19T02:00:50;18.70;99.90
36442;DHT22;64346;50.820;16.274;2023-09-19T02:03:20;18.70;99.90
36442;DHT22;64346;50.820;16.274;2023-09-19T02:05:51;18.70;99.90
36442;DHT22;64346;50.820;16.274;2023-09-19T02:08:19;18.60;99.90
36442;DHT22;64346;50.820;16.274;2023-09-19T02:10:47;18.60;99.90
36442;DHT22;64346;50.820;16.274;2023-09-19T02:13:18;18.50;99.90
36442;DHT22;64346;50.820;16.274;2023-09-19T02:15:46;18.50;99.90
36442;DHT22;64346;50.820;16.274;2023-09-19T02:18:14;18.50;99.90
36442;DHT22;64346;50.820;16.274;2023-09-19T02:20:41;18.40;99.90
36442;DHT22;64346;50.820;16.274;2023-09-19T02:23:12;18.40;99.90
36442;DHT22;64346;50.820;16.274;2023-09-19T02:25:39;18.30;99.90
36442;DHT22;64346;50.820;16.274;2023-09-19T02:28:09;18.30;99.90
36442;DHT22;64346;50.820;16.274;2023-09-19T02:30:36;18.30;99.90
36442;DHT22;64346;50.820;16.274;2023-09-19T02:33:04;18.30;99.90
36442;DHT22;64346;50.820;16.274;2023-09-19T02:35:31;18.30;99.90
36442;DHT22;64346;50.820;16.274;2023-09-19T02:37:58;18.30;99.90
36442;DHT22;64346;50.820;16.274;2023-09-19T02:40:26;18.40;99.90
36442;DHT22;64346;50.820;16.274;2023-09-19T02:42:54;18.30;99.90
36442;DHT22;64346;50.820;16.274;2023-09-19T02:45:22;18.30;99.90
36442;DHT22;64346;50.820;16.274;2023-09-19T02:47:49;18.30;99.90
36442;DHT22;64346;50.820;16.274;2023-09-19T02:50:16;18.30;99.90
36442;DHT22;64346;50.820;16.274;2023-09-19T02:52:45;18.30;99.90
36442;DHT22;64346;50.820;16.274;2023-09-19T02:55:14;18.20;99.90
36442;DHT22;64346;50.820;16.274;2023-09-19T02:57:48;18.20;99.90
36442;DHT22;64346;50.820;16.274;2023-09-19T03:00:18;18.10;99.90
36442;DHT22;64346;50.820;16.274;2023-09-19T03:02:50;18.10;99.90
36442;DHT22;64346;50.820;16.274;2023-09-19T03:05:17;18.00;99.90
36442;DHT22;64346;50.820;16.274;2023-09-19T03:07:45;18.00;99.90
36442;DHT22;64346;50.820;16.274;2023-09-19T03:10:15;17.90;99.90
36442;DHT22;64346;50.820;16.274;2023-09-19T03:12:43;17.80;99.90
36442;DHT22;64346;50.820;16.274;2023-09-19T03:15:10;17.80;99.90
36442;DHT22;64346;50.820;16.274;2023-09-19T03:17:43;17.70;99.90
36442;DHT22;64346;50.820;16.274;2023-09-19T03:20:11;17.70;99.90
36442;DHT22;64346;50.820;16.274;2023-09-19T03:22:39;17.70;99.90
36442;DHT22;64346;50.820;16.274;2023-09-19T03:25:07;17.70;99.90
36442;DHT22;64346;50.820;16.274;2023-09-19T03:27:40;17.70;99.90
36442;DHT22;64346;50.820;16.274;2023-09-19T03:30:08;17.70;99.90
36442;DHT22;64346;50.820;16.274;2023-09-19T03:32:35;17.60;99.90
36442;DHT22;64346;50.820;16.274;2023-09-19T03:35:06;17.60;99.90
36442;DHT22;64346;50.820;16.274;2023-09-19T03:37:33;17.60;99.90
36442;DHT22;64346;50.820;16.274;2023-09-19T03:40:01;17.60;99.90
36442;DHT22;64346;50.820;16.274;2023-09-19T03:42:28;17.60;99.90
36442;DHT22;64346;50.820;16.274;2023-09-19T03:44:55;17.50;99.90
36442;DHT22;64346;50.820;16.274;2023-09-19T03:47:23;17.50;99.90
36442;DHT22;64346;50.820;16.274;2023-09-19T03:49:55;17.50;99.90
36442;DHT22;64346;50.820;16.274;2023-09-19T03:52:26;17.50;99.90
36442;DHT22;64346;50.820;16.274;2023-09-19T03:54:53;17.50;99.90
36442;DHT22;64346;50.820;16.274;2023-09-19T03:57:21;17.40;99.90
36442;DHT22;64346;50.820;16.274;2023-09-19T03:59:48;17.40;99.90
36442;DHT22;64346;50.820;16.274;2023-09-19T04:02:15;17.40;99.90
36442;DHT22;64346;50.820;16.274;2023-09-19T04:04:42;17.40;99.90
36442;DHT22;64346;50.820;16.274;2023-09-19T04:07:10;17.30;99.90
36442;DHT22;64346;50.820;16.274;2023-09-19T04:09:39;17.30;99.90
36442;DHT22;64346;50.820;16.274;2023-09-19T04:12:07;17.30;99.90
36442;DHT22;64346;50.820;16.274;2023-09-19T04:14:35;17.30;99.90
36442;DHT22;64346;50.820;16.274;2023-09-19T04:17:05;17.30;99.90
36442;DHT22;64346;50.820;16.274;2023-09-19T04:19:36;17.30;99.90
36442;DHT22;64346;50.820;16.274;2023-09-19T04:22:06;17.30;99.90
36442;DHT22;64346;50.820;16.274;2023-09-19T04:24:35;17.30;99.90
36442;DHT22;64346;50.820;16.274;2023-09-19T04:27:03;17.20;99.90
36442;DHT22;64346;50.820;16.274;2023-09-19T04:29:33;17.20;99.90
36442;DHT22;64346;50.820;16.274;2023-09-19T04:32:00;17.20;99.90
36442;DHT22;64346;50.820;16.274;2023-09-19T04:34:30;17.20;99.90
36442;DHT22;64346;50.820;16.274;2023-09-19T04:36:57;17.20;99.90
36442;DHT22;64346;50.820;16.274;2023-09-19T04:39:24;17.20;99.90
36442;DHT22;64346;50.820;16.274;2023-09-19T04:41:52;17.20;99.90
36442;DHT22;64346;50.820;16.274;2023-09-19T04:44:20;17.20;99.90
36442;DHT22;64346;50.820;16.274;2023-09-19T04:46:47;17.20;99.90
36442;DHT22;64346;50.820;16.274;2023-09-19T04:49:15;17.10;99.90
36442;DHT22;64346;50.820;16.274;2023-09-19T04:51:42;17.10;99.90
36442;DHT22;64346;50.820;16.274;2023-09-19T04:54:09;17.10;99.90
36442;DHT22;64346;50.820;16.274;2023-09-19T04:56:37;17.10;99.90
36442;DHT22;64346;50.820;16.274;2023-09-19T04:59:06;17.10;99.90
36442;DHT22;64346;50.820;16.274;2023-09-19T05:01:34;17.20;99.90
36442;DHT22;64346;50.820;16.274;2023-09-19T05:04:01;17.20;99.90
36442;DHT22;64346;50.820;16.274;2023-09-19T05:06:28;17.30;99.90
36442;DHT22;64346;50.820;16.274;2023-09-19T05:08:55;17.50;99.90
36442;DHT22;64346;50.820;16.274;2023-09-19T05:11:23;17.80;99.90
36442;DHT22;64346;50.820;16.274;2023-09-19T05:13:50;17.90;99.90
36442;DHT22;64346;50.820;16.274;2023-09-19T05:16:18;18.00;99.90
36442;DHT22;64346;50.820;16.274;2023-09-19T05:18:45;18.10;99.90
36442;DHT22;64346;50.820;16.274;2023-09-19T05:21:13;18.30;99.90
36442;DHT22;64346;50.820;16.274;2023-09-19T05:23:40;18.40;99.90
36442;DHT22;64346;50.820;16.274;2023-09-19T05:26:08;19.00;99.90
36442;DHT22;64346;50.820;16.274;2023-09-19T05:28:35;20.00;99.90
36442;DHT22;64346;50.820;16.274;2023-09-19T05:31:05;21.10;99.90
36442;DHT22;64346;50.820;16.274;2023-09-19T05:33:32;21.80;99.90
36442;DHT22;64346;50.820;16.274;2023-09-19T05:36:00;21.60;99.90
36442;DHT22;64346;50.820;16.274;2023-09-19T05:38:27;21.30;99.90
36442;DHT22;64346;50.820;16.274;2023-09-19T05:40:55;20.90;99.90
36442;DHT22;64346;50.820;16.274;2023-09-19T05:43:22;20.50;99.90
36442;DHT22;64346;50.820;16.274;2023-09-19T05:45:51;20.10;99.90
36442;DHT22;64346;50.820;16.274;2023-09-19T05:48:19;19.70;99.90
36442;DHT22;64346;50.820;16.274;2023-09-19T05:50:49;19.60;99.90
36442;DHT22;64346;50.820;16.274;2023-09-19T05:53:18;19.60;99.90
36442;DHT22;64346;50.820;16.274;2023-09-19T05:55:48;19.50;99.90
36442;DHT22;64346;50.820;16.274;2023-09-19T05:58:16;19.40;99.90
36442;DHT22;64346;50.820;16.274;2023-09-19T06:00:43;19.40;99.90
36442;DHT22;64346;50.820;16.274;2023-09-19T06:03:10;19.50;99.90
36442;DHT22;64346;50.820;16.274;2023-09-19T06:05:40;19.80;99.90
36442;DHT22;64346;50.820;16.274;2023-09-19T06:08:08;20.00;99.90
36442;DHT22;64346;50.820;16.274;2023-09-19T06:10:35;20.40;99.90
36442;DHT22;64346;50.820;16.274;2023-09-19T06:13:03;20.70;99.90
36442;DHT22;64346;50.820;16.274;2023-09-19T06:15:31;20.80;99.90
36442;DHT22;64346;50.820;16.274;2023-09-19T06:17:59;20.90;99.90
36442;DHT22;64346;50.820;16.274;2023-09-19T06:20:27;21.10;99.90
36442;DHT22;64346;50.820;16.274;2023-09-19T06:22:56;21.30;99.90
36442;DHT22;64346;50.820;16.274;2023-09-19T06:25:24;21.80;99.90
36442;DHT22;64346;50.820;16.274;2023-09-19T06:27:52;23.00;99.90
36442;DHT22;64346;50.820;16.274;2023-09-19T06:30:21;24.70;99.90
36442;DHT22;64346;50.820;16.274;2023-09-19T06:32:48;26.30;99.90
36442;DHT22;64346;50.820;16.274;2023-09-19T06:35:18;27.10;99.90
36442;DHT22;64346;50.820;16.274;2023-09-19T06:37:45;27.30;99.90
36442;DHT22;64346;50.820;16.274;2023-09-19T06:40:15;27.40;99.20
36442;DHT22;64346;50.820;16.274;2023-09-19T06:42:52;27.60;98.40
36442;DHT22;64346;50.820;16.274;2023-09-19T06:45:23;27.20;97.80
36442;DHT22;64346;50.820;16.274;2023-09-19T06:47:52;26.60;98.40
36442;DHT22;64346;50.820;16.274;2023-09-19T06:50:21;25.70;99.40
36442;DHT22;64346;50.820;16.274;2023-09-19T06:52:50;24.80;99.90
36442;DHT22;64346;50.820;16.274;2023-09-19T06:55:21;24.20;99.90
36442;DHT22;64346;50.820;16.274;2023-09-19T06:57:51;23.60;99.90
36442;DHT22;64346;50.820;16.274;2023-09-19T07:00:19;23.10;99.90
36442;DHT22;64346;50.820;16.274;2023-09-19T07:03:04;22.80;99.90
36442;DHT22;64346;50.820;16.274;2023-09-19T07:05:33;22.40;99.90
36442;DHT22;64346;50.820;16.274;2023-09-19T07:08:03;22.10;99.90
36442;DHT22;64346;50.820;16.274;2023-09-19T07:10:33;21.90;99.90
36442;DHT22;64346;50.820;16.274;2023-09-19T07:13:02;21.70;99.90
36442;DHT22;64346;50.820;16.274;2023-09-19T07:15:32;21.60;99.90
36442;DHT22;64346;50.820;16.274;2023-09-19T07:18:02;21.50;99.90
36442;DHT22;64346;50.820;16.274;2023-09-19T07:20:32;21.40;99.90
36442;DHT22;64346;50.820;16.274;2023-09-19T07:23:02;21.40;99.90
36442;DHT22;64346;50.820;16.274;2023-09-19T07:25:30;21.40;99.90
36442;DHT22;64346;50.820;16.274;2023-09-19T07:27:58;21.40;99.90
36442;DHT22;64346;50.820;16.274;2023-09-19T07:30:28;21.40;99.90
36442;DHT22;64346;50.820;16.274;2023-09-19T07:32:56;21.60;99.90
36442;DHT22;64346;50.820;16.274;2023-09-19T07:35:23;21.70;99.90
36442;DHT22;64346;50.820;16.274;2023-09-19T07:37:53;21.90;99.90
36442;DHT22;64346;50.820;16.274;2023-09-19T07:40:21;21.90;99.90
36442;DHT22;64346;50.820;16.274;2023-09-19T07:42:48;22.00;99.90
36442;DHT22;64346;50.820;16.274;2023-09-19T07:45:19;22.20;99.90
36442;DHT22;64346;50.820;16.274;2023-09-19T07:47:50;22.60;99.90
36442;DHT22;64346;50.820;16.274;2023-09-19T07:50:19;23.10;99.90
36442;DHT22;64346;50.820;16.274;2023-09-19T07:52:47;23.70;99.90
36442;DHT22;64346;50.820;16.274;2023-09-19T07:55:15;24.30;99.90
36442;DHT22;64346;50.820;16.274;2023-09-19T07:57:43;24.80;99.90
36442;DHT22;64346;50.820;16.274;2023-09-19T08:00:13;25.20;99.90
36442;DHT22;64346;50.820;16.274;2023-09-19T08:02:43;25.60;99.90
36442;DHT22;64346;50.820;16.274;2023-09-19T08:05:13;26.00;99.60
36442;DHT22;64346;50.820;16.274;2023-09-19T08:07:46;26.20;98.70
36442;DHT22;64346;50.820;16.274;2023-09-19T08:10:15;26.80;97.30
36442;DHT22;64346;50.820;16.274;2023-09-19T08:12:45;27.40;95.40
36442;DHT22;64346;50.820;16.274;2023-09-19T08:15:15;28.00;94.60
36442;DHT22;64346;50.820;16.274;2023-09-19T08:17:45;28.90;93.20
36442;DHT22;64346;50.820;16.274;2023-09-19T08:20:13;29.70;91.40
36442;DHT22;64346;50.820;16.274;2023-09-19T08:22:43;30.70;89.70
36442;DHT22;64346;50.820;16.274;2023-09-19T08:25:16;31.70;84.90
36442;DHT22;64346;50.820;16.274;2023-09-19T08:27:43;32.10;80.40
36442;DHT22;64346;50.820;16.274;2023-09-19T08:30:11;31.60;78.60
36442;DHT22;64346;50.820;16.274;2023-09-19T08:32:41;31.20;79.20
36442;DHT22;64346;50.820;16.274;2023-09-19T08:35:10;30.90;79.00
36442;DHT22;64346;50.820;16.274;2023-09-19T08:37:40;31.30;78.90
36442;DHT22;64346;50.820;16.274;2023-09-19T08:40:08;32.40;76.80
36442;DHT22;64346;50.820;16.274;2023-09-19T08:42:51;33.00;74.00
36442;DHT22;64346;50.820;16.274;2023-09-19T08:45:20;32.50;73.30
36442;DHT22;64346;50.820;16.274;2023-09-19T08:50:31;33.10;72.80
36442;DHT22;64346;50.820;16.274;2023-09-19T08:53:02;34.20;70.30
36442;DHT22;64346;50.820;16.274;2023-09-19T08:55:36;34.70;68.60
36442;DHT22;64346;50.820;16.274;2023-09-19T08:58:04;34.90;66.90
36442;DHT22;64346;50.820;16.274;2023-09-19T09:00:37;35.50;65.70
36442;DHT22;64346;50.820;16.274;2023-09-19T09:03:05;36.50;63.60
36442;DHT22;64346;50.820;16.274;2023-09-19T09:05:39;37.20;61.40
36442;DHT22;64346;50.820;16.274;2023-09-19T09:08:09;37.00;60.20
36442;DHT22;64346;50.820;16.274;2023-09-19T09:10:37;36.50;59.80
36442;DHT22;64346;50.820;16.274;2023-09-19T09:13:05;35.50;60.70
36442;DHT22;64346;50.820;16.274;2023-09-19T09:15:35;34.50;61.70
36442;DHT22;64346;50.820;16.274;2023-09-19T09:18:03;33.60;63.10
36442;DHT22;64346;50.820;16.274;2023-09-19T09:20:33;32.50;64.30
36442;DHT22;64346;50.820;16.274;2023-09-19T09:23:00;31.40;65.70
36442;DHT22;64346;50.820;16.274;2023-09-19T09:25:56;30.50;67.20
36442;DHT22;64346;50.820;16.274;2023-09-19T09:28:25;29.70;69.00
36442;DHT22;64346;50.820;16.274;2023-09-19T09:30:56;29.30;70.20
36442;DHT22;64346;50.820;16.274;2023-09-19T09:33:24;29.10;70.90
36442;DHT22;64346;50.820;16.274;2023-09-19T09:38:25;30.10;69.50
36442;DHT22;64346;50.820;16.274;2023-09-19T09:40:54;31.00;67.60
36442;DHT22;64346;50.820;16.274;2023-09-19T09:43:29;31.40;66.20
36442;DHT22;64346;50.820;16.274;2023-09-19T09:48:33;31.40;65.70
36442;DHT22;64346;50.820;16.274;2023-09-19T09:51:03;32.00;65.30
36442;DHT22;64346;50.820;16.274;2023-09-19T09:53:30;32.80;64.20
36442;DHT22;64346;50.820;16.274;2023-09-19T09:58:28;34.10;61.30
36442;DHT22;64346;50.820;16.274;2023-09-19T10:00:59;34.70;60.00
36442;DHT22;64346;50.820;16.274;2023-09-19T10:03:39;35.10;58.70
36442;DHT22;64346;50.820;16.274;2023-09-19T10:06:10;36.20;56.80
36442;DHT22;64346;50.820;16.274;2023-09-19T10:08:37;37.80;54.60
36442;DHT22;64346;50.820;16.274;2023-09-19T10:11:20;38.90;52.20
36442;DHT22;64346;50.820;16.274;2023-09-19T10:13:48;39.20;50.10
36442;DHT22;64346;50.820;16.274;2023-09-19T10:16:16;39.90;48.60
36442;DHT22;64346;50.820;16.274;2023-09-19T10:18:45;41.00;47.60
36442;DHT22;64346;50.820;16.274;2023-09-19T10:21:13;42.20;45.20
36442;DHT22;64346;50.820;16.274;2023-09-19T10:23:41;42.80;43.50
36442;DHT22;64346;50.820;16.274;2023-09-19T10:26:17;42.40;42.70
36442;DHT22;64346;50.820;16.274;2023-09-19T10:28:47;41.60;41.30
36442;DHT22;64346;50.820;16.274;2023-09-19T10:31:19;40.10;41.70
36442;DHT22;64346;50.820;16.274;2023-09-19T10:33:47;39.10;42.60
36442;DHT22;64346;50.820;16.274;2023-09-19T10:36:17;38.40;43.70
36442;DHT22;64346;50.820;16.274;2023-09-19T10:38:45;37.90;44.40
36442;DHT22;64346;50.820;16.274;2023-09-19T10:41:19;37.40;45.00
36442;DHT22;64346;50.820;16.274;2023-09-19T10:43:51;37.10;45.60
36442;DHT22;64346;50.820;16.274;2023-09-19T10:46:19;37.30;45.80
36442;DHT22;64346;50.820;16.274;2023-09-19T10:48:46;38.40;45.10
36442;DHT22;64346;50.820;16.274;2023-09-19T10:51:23;39.00;44.30
36442;DHT22;64346;50.820;16.274;2023-09-19T10:54:21;39.80;43.40
36442;DHT22;64346;50.820;16.274;2023-09-19T10:56:50;40.40;43.20
36442;DHT22;64346;50.820;16.274;2023-09-19T10:59:19;41.30;42.40
36442;DHT22;64346;50.820;16.274;2023-09-19T11:01:51;41.40;42.20
36442;DHT22;64346;50.820;16.274;2023-09-19T11:07:14;41.30;41.80
36442;DHT22;64346;50.820;16.274;2023-09-19T11:09:57;41.60;41.60
36442;DHT22;64346;50.820;16.274;2023-09-19T11:15:02;40.50;42.20
36442;DHT22;64346;50.820;16.274;2023-09-19T11:17:33;39.60;42.60
36442;DHT22;64346;50.820;16.274;2023-09-19T11:33:37;31.10;51.60
36442;DHT22;64346;50.820;16.274;2023-09-19T11:36:06;30.00;53.10
36442;DHT22;64346;50.820;16.274;2023-09-19T11:44:38;28.20;56.80
36442;DHT22;64346;50.820;16.274;2023-09-19T11:49:31;27.40;58.60
36442;DHT22;64346;50.820;16.274;2023-09-19T11:52:02;27.10;59.30
36442;DHT22;64346;50.820;16.274;2023-09-19T11:54:30;26.70;59.90
36442;DHT22;64346;50.820;16.274;2023-09-19T11:57:00;26.30;60.30
36442;DHT22;64346;50.820;16.274;2023-09-19T11:59:30;26.10;61.40
36442;DHT22;64346;50.820;16.274;2023-09-19T12:02:01;25.80;61.00
36442;DHT22;64346;50.820;16.274;2023-09-19T12:04:39;25.50;61.80
36442;DHT22;64346;50.820;16.274;2023-09-19T12:07:08;25.30;62.60
36442;DHT22;64346;50.820;16.274;2023-09-19T12:09:41;25.20;62.40
36442;DHT22;64346;50.820;16.274;2023-09-19T12:12:26;24.90;62.10
36442;DHT22;64346;50.820;16.274;2023-09-19T12:14:54;24.60;62.20
36442;DHT22;64346;50.820;16.274;2023-09-19T12:17:21;24.50;63.00
36442;DHT22;64346;50.820;16.274;2023-09-19T12:19:56;24.30;63.40
36442;DHT22;64346;50.820;16.274;2023-09-19T12:22:23;24.30;63.90
36442;DHT22;64346;50.820;16.274;2023-09-19T12:24:51;24.30;63.70
36442;DHT22;64346;50.820;16.274;2023-09-19T12:27:18;24.30;64.10
36442;DHT22;64346;50.820;16.274;2023-09-19T12:29:49;24.20;64.70
36442;DHT22;64346;50.820;16.274;2023-09-19T12:32:17;24.20;65.20
36442;DHT22;64346;50.820;16.274;2023-09-19T12:34:53;24.20;65.50
36442;DHT22;64346;50.820;16.274;2023-09-19T12:37:23;24.10;65.70
36442;DHT22;64346;50.820;16.274;2023-09-19T12:39:53;24.00;66.10
36442;DHT22;64346;50.820;16.274;2023-09-19T12:42:30;24.00;66.50
36442;DHT22;64346;50.820;16.274;2023-09-19T12:44:58;23.90;67.20
36442;DHT22;64346;50.820;16.274;2023-09-19T12:47:26;23.80;67.50
36442;DHT22;64346;50.820;16.274;2023-09-19T12:50:14;23.60;68.10
36442;DHT22;64346;50.820;16.274;2023-09-19T12:52:49;23.50;68.90
36442;DHT22;64346;50.820;16.274;2023-09-19T12:58:14;23.40;69.90
36442;DHT22;64346;50.820;16.274;2023-09-19T13:00:43;23.40;70.20
36442;DHT22;64346;50.820;16.274;2023-09-19T13:03:17;23.40;70.40
36442;DHT22;64346;50.820;16.274;2023-09-19T13:05:50;23.40;71.00
36442;DHT22;64346;50.820;16.274;2023-09-19T13:08:21;23.30;71.20
36442;DHT22;64346;50.820;16.274;2023-09-19T13:13:41;23.00;72.00
36442;DHT22;64346;50.820;16.274;2023-09-19T13:16:14;22.90;72.90
36442;DHT22;64346;50.820;16.274;2023-09-19T13:18:49;23.00;73.70
36442;DHT22;64346;50.820;16.274;2023-09-19T13:21:26;23.00;74.30
36442;DHT22;64346;50.820;16.274;2023-09-19T13:24:23;23.00;74.60
36442;DHT22;64346;50.820;16.274;2023-09-19T13:26:50;23.20;74.20
36442;DHT22;64346;50.820;16.274;2023-09-19T13:29:20;23.20;74.40
36442;DHT22;64346;50.820;16.274;2023-09-19T13:31:49;23.30;74.30
36442;DHT22;64346;50.820;16.274;2023-09-19T13:34:16;23.30;74.40
36442;DHT22;64346;50.820;16.274;2023-09-19T13:36:47;23.40;74.90
36442;DHT22;64346;50.820;16.274;2023-09-19T13:39:17;23.40;74.70
36442;DHT22;64346;50.820;16.274;2023-09-19T13:41:48;23.40;74.90
36442;DHT22;64346;50.820;16.274;2023-09-19T13:44:23;23.20;75.80
36442;DHT22;64346;50.820;16.274;2023-09-19T13:46:50;23.00;77.10
36442;DHT22;64346;50.820;16.274;2023-09-19T13:49:17;22.90;77.30
36442;DHT22;64346;50.820;16.274;2023-09-19T13:51:54;22.90;78.60
36442;DHT22;64346;50.820;16.274;2023-09-19T13:54:24;23.10;79.50
36442;DHT22;64346;50.820;16.274;2023-09-19T13:56:54;23.20;79.90
36442;DHT22;64346;50.820;16.274;2023-09-19T13:59:21;23.40;79.60
36442;DHT22;64346;50.820;16.274;2023-09-19T14:01:52;23.50;79.60
36442;DHT22;64346;50.820;16.274;2023-09-19T14:04:21;23.60;80.70
36442;DHT22;64346;50.820;16.274;2023-09-19T14:06:51;23.60;80.90
36442;DHT22;64346;50.820;16.274;2023-09-19T14:09:24;23.50;81.80
36442;DHT22;64346;50.820;16.274;2023-09-19T14:11:51;23.40;82.60
36442;DHT22;64346;50.820;16.274;2023-09-19T14:14:19;23.40;83.30
36442;DHT22;64346;50.820;16.274;2023-09-19T14:16:51;23.40;83.40
36442;DHT22;64346;50.820;16.274;2023-09-19T14:19:23;23.40;83.20
36442;DHT22;64346;50.820;16.274;2023-09-19T14:21:51;23.30;83.70
36442;DHT22;64346;50.820;16.274;2023-09-19T14:24:18;23.10;84.50
36442;DHT22;64346;50.820;16.274;2023-09-19T14:26:46;23.00;85.80
36442;DHT22;64346;50.820;16.274;2023-09-19T14:29:13;23.00;87.00
36442;DHT22;64346;50.820;16.274;2023-09-19T14:31:41;23.10;87.20
36442;DHT22;64346;50.820;16.274;2023-09-19T14:34:11;23.20;87.40
36442;DHT22;64346;50.820;16.274;2023-09-19T14:36:41;23.30;87.20
36442;DHT22;64346;50.820;16.274;2023-09-19T14:39:11;23.40;87.60
36442;DHT22;64346;50.820;16.274;2023-09-19T14:41:41;23.40;87.50
36442;DHT22;64346;50.820;16.274;2023-09-19T14:44:08;23.40;87.40
36442;DHT22;64346;50.820;16.274;2023-09-19T14:46:39;23.40;87.80
36442;DHT22;64346;50.820;16.274;2023-09-19T14:49:07;23.40;88.20
36442;DHT22;64346;50.820;16.274;2023-09-19T14:51:37;23.40;88.50
36442;DHT22;64346;50.820;16.274;2023-09-19T14:54:07;23.20;88.30
36442;DHT22;64346;50.820;16.274;2023-09-19T14:56:35;23.10;88.50
36442;DHT22;64346;50.820;16.274;2023-09-19T14:59:04;22.90;88.50
36442;DHT22;64346;50.820;16.274;2023-09-19T15:01:32;22.60;88.60
36442;DHT22;64346;50.820;16.274;2023-09-19T15:03:59;22.50;89.60
36442;DHT22;64346;50.820;16.274;2023-09-19T15:06:27;22.30;90.40
36442;DHT22;64346;50.820;16.274;2023-09-19T15:08:55;22.20;91.00
36442;DHT22;64346;50.820;16.274;2023-09-19T15:11:22;22.20;91.10
36442;DHT22;64346;50.820;16.274;2023-09-19T15:13:52;22.30;91.40
36442;DHT22;64346;50.820;16.274;2023-09-19T15:16:22;22.40;91.50
36442;DHT22;64346;50.820;16.274;2023-09-19T15:18:52;22.50;91.70
36442;DHT22;64346;50.820;16.274;2023-09-19T15:21:19;22.50;91.70
36442;DHT22;64346;50.820;16.274;2023-09-19T15:23:46;22.40;91.20
36442;DHT22;64346;50.820;16.274;2023-09-19T15:26:14;22.30;91.20
36442;DHT22;64346;50.820;16.274;2023-09-19T15:28:44;22.20;91.50
36442;DHT22;64346;50.820;16.274;2023-09-19T15:31:13;22.10;91.90
36442;DHT22;64346;50.820;16.274;2023-09-19T15:33:40;22.00;92.10
36442;DHT22;64346;50.820;16.274;2023-09-19T15:36:08;22.00;92.50
36442;DHT22;64346;50.820;16.274;2023-09-19T15:41:27;22.00;93.20
36442;DHT22;64346;50.820;16.274;2023-09-19T15:43:55;22.00;93.20
36442;DHT22;64346;50.820;16.274;2023-09-19T15:46:23;22.00;93.40
36442;DHT22;64346;50.820;16.274;2023-09-19T15:48:50;22.00;93.50
36442;DHT22;64346;50.820;16.274;2023-09-19T15:51:22;21.90;93.80
36442;DHT22;64346;50.820;16.274;2023-09-19T15:53:53;21.90;94.10
36442;DHT22;64346;50.820;16.274;2023-09-19T15:56:24;21.90;94.60
36442;DHT22;64346;50.820;16.274;2023-09-19T15:58:55;21.90;95.00
36442;DHT22;64346;50.820;16.274;2023-09-19T16:01:23;21.80;95.30
36442;DHT22;64346;50.820;16.274;2023-09-19T16:03:53;21.70;95.60
36442;DHT22;64346;50.820;16.274;2023-09-19T16:06:29;21.70;96.10
36442;DHT22;64346;50.820;16.274;2023-09-19T16:08:58;21.60;96.50
36442;DHT22;64346;50.820;16.274;2023-09-19T16:11:27;21.50;96.80
36442;DHT22;64346;50.820;16.274;2023-09-19T16:14:06;21.40;97.00
36442;DHT22;64346;50.820;16.274;2023-09-19T16:16:36;21.30;96.80
36442;DHT22;64346;50.820;16.274;2023-09-19T16:19:04;21.10;96.90
36442;DHT22;64346;50.820;16.274;2023-09-19T16:21:33;21.00;96.90
36442;DHT22;64346;50.820;16.274;2023-09-19T16:24:00;20.90;97.10
36442;DHT22;64346;50.820;16.274;2023-09-19T16:26:28;20.80;97.60
36442;DHT22;64346;50.820;16.274;2023-09-19T16:28:57;20.60;98.00
36442;DHT22;64346;50.820;16.274;2023-09-19T16:31:25;20.50;98.60
36442;DHT22;64346;50.820;16.274;2023-09-19T16:33:52;20.40;99.50